sensor_id;sensor_type;location;lat;lon;timestamp;temperature;humidity
75357;HTU21D;63946;51.986;5.930;2023-12-22T00:01:08;7.48;73.71
75357;HTU21D;63946;51.986;5.930;2023-12-22T00:03:46;7.52;73.80
75357;HTU21D;63946;51.986;5.930;2023-12-22T00:06:23;7.54;73.85
75357;HTU21D;63946;51.986;5.930;2023-12-22T00:08:52;7.55;73.80
75357;HTU21D;63946;51.986;5.930;2023-12-22T00:11:21;7.57;73.80
75357;HTU21D;63946;51.986;5.930;2023-12-22T00:13:50;7.58;73.76
75357;HTU21D;63946;51.986;5.930;2023-12-22T00:16:19;7.58;73.80
75357;HTU21D;63946;51.986;5.930;2023-12-22T00:18:48;7.60;73.87
75357;HTU21D;63946;51.986;5.930;2023-12-22T00:21:27;7.63;73.86
75357;HTU21D;63946;51.986;5.930;2023-12-22T00:23:57;7.63;73.87
75357;HTU21D;63946;51.986;5.930;2023-12-22T00:26:26;7.65;73.90
75357;HTU21D;63946;51.986;5.930;2023-12-22T00:28:58;7.67;74.06
75357;HTU21D;63946;51.986;5.930;2023-12-22T00:31:54;7.68;74.15
75357;HTU21D;63946;51.986;5.930;2023-12-22T00:34:22;7.64;74.29
75357;HTU21D;63946;51.986;5.930;2023-12-22T00:36:51;7.58;74.41
75357;HTU21D;63946;51.986;5.930;2023-12-22T00:39:30;7.49;74.60
75357;HTU21D;63946;51.986;5.930;2023-12-22T00:41:59;7.38;74.81
75357;HTU21D;63946;51.986;5.930;2023-12-22T00:44:30;7.30;75.05
75357;HTU21D;63946;51.986;5.930;2023-12-22T00:47:04;7.27;75.28
75357;HTU21D;63946;51.986;5.930;2023-12-22T00:49:33;7.23;75.12
75357;HTU21D;63946;51.986;5.930;2023-12-22T00:52:05;7.20;75.00
75357;HTU21D;63946;51.986;5.930;2023-12-22T00:54:34;7.16;75.00
75357;HTU21D;63946;51.986;5.930;2023-12-22T00:57:03;7.14;75.15
75357;HTU21D;63946;51.986;5.930;2023-12-22T00:59:35;7.15;75.17
75357;HTU21D;63946;51.986;5.930;2023-12-22T01:02:08;7.15;75.15
75357;HTU21D;63946;51.986;5.930;2023-12-22T01:04:37;7.14;75.05
75357;HTU21D;63946;51.986;5.930;2023-12-22T01:07:09;7.13;75.31
75357;HTU21D;63946;51.986;5.930;2023-12-22T01:09:43;7.11;75.34
75357;HTU21D;63946;51.986;5.930;2023-12-22T01:12:11;7.04;75.37
75357;HTU21D;63946;51.986;5.930;2023-12-22T01:14:40;7.02;75.37
75357;HTU21D;63946;51.986;5.930;2023-12-22T01:17:11;7.03;75.44
75357;HTU21D;63946;51.986;5.930;2023-12-22T01:19:40;7.00;75.34
75357;HTU21D;63946;51.986;5.930;2023-12-22T01:22:11;6.97;75.42
75357;HTU21D;63946;51.986;5.930;2023-12-22T01:24:43;6.97;75.43
75357;HTU21D;63946;51.986;5.930;2023-12-22T01:27:21;6.94;75.36
75357;HTU21D;63946;51.986;5.930;2023-12-22T01:29:50;6.93;75.32
75357;HTU21D;63946;51.986;5.930;2023-12-22T01:32:19;6.94;75.16
75357;HTU21D;63946;51.986;5.930;2023-12-22T01:34:48;6.95;75.12
75357;HTU21D;63946;51.986;5.930;2023-12-22T01:37:45;6.99;74.99
75357;HTU21D;63946;51.986;5.930;2023-12-22T01:40:24;7.00;75.02
75357;HTU21D;63946;51.986;5.930;2023-12-22T01:42:53;7.01;75.02
75357;HTU21D;63946;51.986;5.930;2023-12-22T01:45:22;7.05;74.98
75357;HTU21D;63946;51.986;5.930;2023-12-22T01:47:52;7.07;75.00
75357;HTU21D;63946;51.986;5.930;2023-12-22T01:50:24;7.08;74.94
75357;HTU21D;63946;51.986;5.930;2023-12-22T01:53:04;7.10;74.99
75357;HTU21D;63946;51.986;5.930;2023-12-22T01:55:35;7.07;75.07
75357;HTU21D;63946;51.986;5.930;2023-12-22T01:58:04;7.05;75.12
75357;HTU21D;63946;51.986;5.930;2023-12-22T02:00:34;7.02;75.22
75357;HTU21D;63946;51.986;5.930;2023-12-22T02:03:05;7.00;75.28
75357;HTU21D;63946;51.986;5.930;2023-12-22T02:05:35;6.99;75.35
75357;HTU21D;63946;51.986;5.930;2023-12-22T02:08:04;7.00;75.41
75357;HTU21D;63946;51.986;5.930;2023-12-22T02:10:34;7.01;75.48
75357;HTU21D;63946;51.986;5.930;2023-12-22T02:13:07;7.04;75.46
75357;HTU21D;63946;51.986;5.930;2023-12-22T02:15:38;7.04;75.43
75357;HTU21D;63946;51.986;5.930;2023-12-22T02:18:19;7.04;75.31
75357;HTU21D;63946;51.986;5.930;2023-12-22T02:20:53;7.02;75.42
75357;HTU21D;63946;51.986;5.930;2023-12-22T02:23:25;7.03;75.46
75357;HTU21D;63946;51.986;5.930;2023-12-22T02:26:27;7.05;75.52
75357;HTU21D;63946;51.986;5.930;2023-12-22T02:29:04;7.07;75.54
75357;HTU21D;63946;51.986;5.930;2023-12-22T02:31:44;7.08;75.52
75357;HTU21D;63946;51.986;5.930;2023-12-22T02:34:26;7.09;75.54
75357;HTU21D;63946;51.986;5.930;2023-12-22T02:36:58;7.05;75.55
75357;HTU21D;63946;51.986;5.930;2023-12-22T02:39:27;7.07;75.47
75357;HTU21D;63946;51.986;5.930;2023-12-22T02:41:58;7.09;75.51
75357;HTU21D;63946;51.986;5.930;2023-12-22T02:44:28;7.13;75.62
75357;HTU21D;63946;51.986;5.930;2023-12-22T02:47:00;7.16;75.64
75357;HTU21D;63946;51.986;5.930;2023-12-22T02:49:32;7.17;75.67
75357;HTU21D;63946;51.986;5.930;2023-12-22T02:52:04;7.20;75.72
75357;HTU21D;63946;51.986;5.930;2023-12-22T02:54:37;7.23;75.79
75357;HTU21D;63946;51.986;5.930;2023-12-22T02:57:09;7.23;75.86
75357;HTU21D;63946;51.986;5.930;2023-12-22T02:59:39;7.25;75.90
75357;HTU21D;63946;51.986;5.930;2023-12-22T03:02:11;7.27;75.92
75357;HTU21D;63946;51.986;5.930;2023-12-22T03:04:40;7.28;75.92
75357;HTU21D;63946;51.986;5.930;2023-12-22T03:07:12;7.30;75.97
75357;HTU21D;63946;51.986;5.930;2023-12-22T03:09:43;7.30;75.97
75357;HTU21D;63946;51.986;5.930;2023-12-22T03:12:13;7.30;76.00
75357;HTU21D;63946;51.986;5.930;2023-12-22T03:14:42;7.30;75.99
75357;HTU21D;63946;51.986;5.930;2023-12-22T03:17:11;7.31;75.96
75357;HTU21D;63946;51.986;5.930;2023-12-22T03:19:40;7.32;75.95
75357;HTU21D;63946;51.986;5.930;2023-12-22T03:22:12;7.31;75.99
75357;HTU21D;63946;51.986;5.930;2023-12-22T03:24:43;7.23;76.15
75357;HTU21D;63946;51.986;5.930;2023-12-22T03:27:15;7.02;75.94
75357;HTU21D;63946;51.986;5.930;2023-12-22T03:29:48;6.83;76.06
75357;HTU21D;63946;51.986;5.930;2023-12-22T03:32:18;6.71;75.68
75357;HTU21D;63946;51.986;5.930;2023-12-22T03:34:49;6.52;75.78
75357;HTU21D;63946;51.986;5.930;2023-12-22T03:37:19;6.40;76.02
75357;HTU21D;63946;51.986;5.930;2023-12-22T03:39:48;6.35;76.08
75357;HTU21D;63946;51.986;5.930;2023-12-22T03:42:17;6.28;76.22
75357;HTU21D;63946;51.986;5.930;2023-12-22T03:44:48;6.25;76.21
75357;HTU21D;63946;51.986;5.930;2023-12-22T03:47:19;6.22;76.22
75357;HTU21D;63946;51.986;5.930;2023-12-22T03:49:48;6.21;76.21
75357;HTU21D;63946;51.986;5.930;2023-12-22T03:52:17;6.21;76.15
75357;HTU21D;63946;51.986;5.930;2023-12-22T03:54:53;6.21;76.21
75357;HTU21D;63946;51.986;5.930;2023-12-22T03:57:22;6.20;76.32
75357;HTU21D;63946;51.986;5.930;2023-12-22T03:59:59;6.16;76.59
75357;HTU21D;63946;51.986;5.930;2023-12-22T04:02:30;6.17;76.70
75357;HTU21D;63946;51.986;5.930;2023-12-22T04:05:01;6.22;76.77
75357;HTU21D;63946;51.986;5.930;2023-12-22T04:07:35;6.24;76.86
75357;HTU21D;63946;51.986;5.930;2023-12-22T04:10:07;6.24;76.98
75357;HTU21D;63946;51.986;5.930;2023-12-22T04:12:36;6.22;77.08
75357;HTU21D;63946;51.986;5.930;2023-12-22T04:15:06;6.20;77.17
75357;HTU21D;63946;51.986;5.930;2023-12-22T04:17:35;6.20;77.23
75357;HTU21D;63946;51.986;5.930;2023-12-22T04:20:07;6.22;77.27
75357;HTU21D;63946;51.986;5.930;2023-12-22T04:22:39;6.29;77.22
75357;HTU21D;63946;51.986;5.930;2023-12-22T04:25:08;6.35;77.08
75357;HTU21D;63946;51.986;5.930;2023-12-22T04:27:37;6.39;77.00
75357;HTU21D;63946;51.986;5.930;2023-12-22T04:30:08;6.41;76.92
75357;HTU21D;63946;51.986;5.930;2023-12-22T04:32:37;6.45;76.82
75357;HTU21D;63946;51.986;5.930;2023-12-22T04:35:08;6.51;76.86
75357;HTU21D;63946;51.986;5.930;2023-12-22T04:37:37;6.52;76.87
75357;HTU21D;63946;51.986;5.930;2023-12-22T04:40:11;6.53;76.95
75357;HTU21D;63946;51.986;5.930;2023-12-22T04:42:40;6.55;76.61
75357;HTU21D;63946;51.986;5.930;2023-12-22T04:45:12;6.59;76.97
75357;HTU21D;63946;51.986;5.930;2023-12-22T04:47:44;6.65;76.98
75357;HTU21D;63946;51.986;5.930;2023-12-22T04:50:25;6.70;76.86
75357;HTU21D;63946;51.986;5.930;2023-12-22T04:52:57;6.75;76.86
75357;HTU21D;63946;51.986;5.930;2023-12-22T04:55:29;6.81;76.85
75357;HTU21D;63946;51.986;5.930;2023-12-22T04:58:00;6.85;76.83
75357;HTU21D;63946;51.986;5.930;2023-12-22T05:00:29;6.90;76.81
75357;HTU21D;63946;51.986;5.930;2023-12-22T05:02:58;6.93;76.76
75357;HTU21D;63946;51.986;5.930;2023-12-22T05:05:29;6.95;76.80
75357;HTU21D;63946;51.986;5.930;2023-12-22T05:07:58;6.98;76.85
75357;HTU21D;63946;51.986;5.930;2023-12-22T05:10:33;6.99;76.78
75357;HTU21D;63946;51.986;5.930;2023-12-22T05:13:05;7.02;76.86
75357;HTU21D;63946;51.986;5.930;2023-12-22T05:15:34;7.02;76.89
75357;HTU21D;63946;51.986;5.930;2023-12-22T05:18:06;7.05;76.93
75357;HTU21D;63946;51.986;5.930;2023-12-22T05:20:35;7.07;76.97
75357;HTU21D;63946;51.986;5.930;2023-12-22T05:23:04;7.07;77.02
75357;HTU21D;63946;51.986;5.930;2023-12-22T05:25:36;7.08;76.98
75357;HTU21D;63946;51.986;5.930;2023-12-22T05:28:08;7.08;77.02
75357;HTU21D;63946;51.986;5.930;2023-12-22T05:30:42;7.09;77.05
75357;HTU21D;63946;51.986;5.930;2023-12-22T05:33:21;7.09;77.01
75357;HTU21D;63946;51.986;5.930;2023-12-22T05:35:50;7.09;77.03
75357;HTU21D;63946;51.986;5.930;2023-12-22T05:38:18;7.07;77.05
75357;HTU21D;63946;51.986;5.930;2023-12-22T05:40:47;7.05;77.13
75357;HTU21D;63946;51.986;5.930;2023-12-22T05:43:16;7.07;77.14
75357;HTU21D;63946;51.986;5.930;2023-12-22T05:45:48;7.09;77.08
75357;HTU21D;63946;51.986;5.930;2023-12-22T05:48:17;7.12;76.99
75357;HTU21D;63946;51.986;5.930;2023-12-22T05:50:48;7.14;77.08
75357;HTU21D;63946;51.986;5.930;2023-12-22T05:53:32;7.19;76.99
75357;HTU21D;63946;51.986;5.930;2023-12-22T05:56:01;7.24;76.92
75357;HTU21D;63946;51.986;5.930;2023-12-22T05:58:30;7.26;76.84
75357;HTU21D;63946;51.986;5.930;2023-12-22T06:01:02;7.27;76.86
75357;HTU21D;63946;51.986;5.930;2023-12-22T06:03:31;7.27;76.86
75357;HTU21D;63946;51.986;5.930;2023-12-22T06:06:00;7.29;76.94
75357;HTU21D;63946;51.986;5.930;2023-12-22T06:08:29;7.29;76.86
75357;HTU21D;63946;51.986;5.930;2023-12-22T06:11:04;7.28;76.82
75357;HTU21D;63946;51.986;5.930;2023-12-22T06:13:33;7.31;76.76
75357;HTU21D;63946;51.986;5.930;2023-12-22T06:16:03;7.34;76.67
75357;HTU21D;63946;51.986;5.930;2023-12-22T06:18:32;7.38;76.43
75357;HTU21D;63946;51.986;5.930;2023-12-22T06:21:01;7.38;76.39
75357;HTU21D;63946;51.986;5.930;2023-12-22T06:23:32;7.40;76.34
75357;HTU21D;63946;51.986;5.930;2023-12-22T06:26:11;7.44;76.27
75357;HTU21D;63946;51.986;5.930;2023-12-22T06:28:40;7.48;76.16
75357;HTU21D;63946;51.986;5.930;2023-12-22T06:31:07;7.50;76.16
75357;HTU21D;63946;51.986;5.930;2023-12-22T06:33:39;7.56;76.09
75357;HTU21D;63946;51.986;5.930;2023-12-22T06:36:22;7.58;76.12
75357;HTU21D;63946;51.986;5.930;2023-12-22T06:39:03;7.61;76.13
75357;HTU21D;63946;51.986;5.930;2023-12-22T06:41:39;7.67;76.13
75357;HTU21D;63946;51.986;5.930;2023-12-22T06:44:08;7.70;76.03
75357;HTU21D;63946;51.986;5.930;2023-12-22T06:46:40;7.77;76.00
75357;HTU21D;63946;51.986;5.930;2023-12-22T06:49:09;7.82;76.02
75357;HTU21D;63946;51.986;5.930;2023-12-22T06:51:40;7.87;76.04
75357;HTU21D;63946;51.986;5.930;2023-12-22T06:54:10;7.91;75.99
75357;HTU21D;63946;51.986;5.930;2023-12-22T06:56:41;7.97;76.00
75357;HTU21D;63946;51.986;5.930;2023-12-22T06:59:20;8.02;75.76
75357;HTU21D;63946;51.986;5.930;2023-12-22T07:01:51;8.06;75.94
75357;HTU21D;63946;51.986;5.930;2023-12-22T07:07:32;8.15;75.80
75357;HTU21D;63946;51.986;5.930;2023-12-22T07:10:01;8.18;75.75
75357;HTU21D;63946;51.986;5.930;2023-12-22T07:12:30;8.22;75.64
75357;HTU21D;63946;51.986;5.930;2023-12-22T07:15:03;8.27;75.63
75357;HTU21D;63946;51.986;5.930;2023-12-22T07:17:33;8.30;75.57
75357;HTU21D;63946;51.986;5.930;2023-12-22T07:20:11;8.33;75.57
75357;HTU21D;63946;51.986;5.930;2023-12-22T07:22:46;8.37;75.46
75357;HTU21D;63946;51.986;5.930;2023-12-22T07:25:17;8.38;75.35
75357;HTU21D;63946;51.986;5.930;2023-12-22T07:27:51;8.41;75.35
75357;HTU21D;63946;51.986;5.930;2023-12-22T07:30:28;8.43;75.41
75357;HTU21D;63946;51.986;5.930;2023-12-22T07:33:02;8.45;75.39
75357;HTU21D;63946;51.986;5.930;2023-12-22T07:35:33;8.46;75.44
75357;HTU21D;63946;51.986;5.930;2023-12-22T07:38:03;8.49;75.42
75357;HTU21D;63946;51.986;5.930;2023-12-22T07:40:32;8.52;75.39
75357;HTU21D;63946;51.986;5.930;2023-12-22T07:43:14;8.57;75.25
75357;HTU21D;63946;51.986;5.930;2023-12-22T07:45:55;8.59;75.25
75357;HTU21D;63946;51.986;5.930;2023-12-22T07:48:50;8.61;75.05
75357;HTU21D;63946;51.986;5.930;2023-12-22T07:51:20;8.63;75.21
75357;HTU21D;63946;51.986;5.930;2023-12-22T07:53:52;8.65;75.17
75357;HTU21D;63946;51.986;5.930;2023-12-22T07:56:24;8.70;75.13
75357;HTU21D;63946;51.986;5.930;2023-12-22T07:58:59;8.72;75.12
75357;HTU21D;63946;51.986;5.930;2023-12-22T08:01:35;8.74;75.02
75357;HTU21D;63946;51.986;5.930;2023-12-22T08:04:06;8.76;74.93
75357;HTU21D;63946;51.986;5.930;2023-12-22T08:06:57;8.77;74.79
75357;HTU21D;63946;51.986;5.930;2023-12-22T08:09:33;8.78;74.80
75357;HTU21D;63946;51.986;5.930;2023-12-22T08:12:14;8.81;74.76
75357;HTU21D;63946;51.986;5.930;2023-12-22T08:14:44;8.83;74.70
75357;HTU21D;63946;51.986;5.930;2023-12-22T08:17:13;8.85;74.68
75357;HTU21D;63946;51.986;5.930;2023-12-22T08:19:52;8.86;74.92
75357;HTU21D;63946;51.986;5.930;2023-12-22T08:22:22;8.79;75.10
75357;HTU21D;63946;51.986;5.930;2023-12-22T08:24:51;8.74;75.25
75357;HTU21D;63946;51.986;5.930;2023-12-22T08:27:23;8.66;75.40
75357;HTU21D;63946;51.986;5.930;2023-12-22T08:29:58;8.61;75.52
75357;HTU21D;63946;51.986;5.930;2023-12-22T08:32:27;8.56;75.76
75357;HTU21D;63946;51.986;5.930;2023-12-22T08:34:57;8.52;75.97
75357;HTU21D;63946;51.986;5.930;2023-12-22T08:37:30;8.52;76.08
75357;HTU21D;63946;51.986;5.930;2023-12-22T08:40:02;8.51;76.18
75357;HTU21D;63946;51.986;5.930;2023-12-22T08:42:31;8.55;76.31
75357;HTU21D;63946;51.986;5.930;2023-12-22T08:45:03;8.55;76.36
75357;HTU21D;63946;51.986;5.930;2023-12-22T08:47:33;8.56;76.44
75357;HTU21D;63946;51.986;5.930;2023-12-22T08:50:05;8.58;76.54
75357;HTU21D;63946;51.986;5.930;2023-12-22T08:52:35;8.59;76.66
75357;HTU21D;63946;51.986;5.930;2023-12-22T08:55:05;8.61;76.78
75357;HTU21D;63946;51.986;5.930;2023-12-22T08:57:34;8.64;76.88
75357;HTU21D;63946;51.986;5.930;2023-12-22T09:00:04;8.66;76.98
75357;HTU21D;63946;51.986;5.930;2023-12-22T09:02:33;8.68;77.06
75357;HTU21D;63946;51.986;5.930;2023-12-22T09:05:05;8.73;77.14
75357;HTU21D;63946;51.986;5.930;2023-12-22T09:07:36;8.76;77.18
75357;HTU21D;63946;51.986;5.930;2023-12-22T09:10:06;8.79;77.21
75357;HTU21D;63946;51.986;5.930;2023-12-22T09:12:35;8.82;77.23
75357;HTU21D;63946;51.986;5.930;2023-12-22T09:15:07;8.85;77.27
75357;HTU21D;63946;51.986;5.930;2023-12-22T09:17:39;8.86;77.34
75357;HTU21D;63946;51.986;5.930;2023-12-22T09:20:12;8.88;77.38
75357;HTU21D;63946;51.986;5.930;2023-12-22T09:22:41;8.90;77.40
75357;HTU21D;63946;51.986;5.930;2023-12-22T09:25:31;8.90;77.40
75357;HTU21D;63946;51.986;5.930;2023-12-22T09:28:01;8.91;77.48
75357;HTU21D;63946;51.986;5.930;2023-12-22T09:30:30;8.91;77.57
75357;HTU21D;63946;51.986;5.930;2023-12-22T09:33:01;8.92;77.63
75357;HTU21D;63946;51.986;5.930;2023-12-22T09:35:31;8.96;77.68
75357;HTU21D;63946;51.986;5.930;2023-12-22T09:38:09;9.00;77.75
75357;HTU21D;63946;51.986;5.930;2023-12-22T09:40:42;9.02;77.83
75357;HTU21D;63946;51.986;5.930;2023-12-22T09:43:14;9.06;77.95
75357;HTU21D;63946;51.986;5.930;2023-12-22T09:45:46;9.10;77.94
75357;HTU21D;63946;51.986;5.930;2023-12-22T09:48:17;9.14;77.99
75357;HTU21D;63946;51.986;5.930;2023-12-22T09:50:55;9.15;78.06
75357;HTU21D;63946;51.986;5.930;2023-12-22T09:53:26;9.16;78.13
75357;HTU21D;63946;51.986;5.930;2023-12-22T09:56:00;9.17;78.14
75357;HTU21D;63946;51.986;5.930;2023-12-22T09:58:32;9.16;78.14
75357;HTU21D;63946;51.986;5.930;2023-12-22T10:01:05;9.14;78.01
75357;HTU21D;63946;51.986;5.930;2023-12-22T10:03:34;9.09;77.76
75357;HTU21D;63946;51.986;5.930;2023-12-22T10:06:08;9.07;77.75
75357;HTU21D;63946;51.986;5.930;2023-12-22T10:08:39;9.08;77.67
75357;HTU21D;63946;51.986;5.930;2023-12-22T10:11:13;9.07;77.59
75357;HTU21D;63946;51.986;5.930;2023-12-22T10:13:43;9.05;77.55
75357;HTU21D;63946;51.986;5.930;2023-12-22T10:16:17;9.03;77.31
75357;HTU21D;63946;51.986;5.930;2023-12-22T10:18:46;8.97;77.37
75357;HTU21D;63946;51.986;5.930;2023-12-22T10:21:17;8.95;77.51
75357;HTU21D;63946;51.986;5.930;2023-12-22T10:23:49;8.98;77.50
75357;HTU21D;63946;51.986;5.930;2023-12-22T10:26:24;8.98;77.53
75357;HTU21D;63946;51.986;5.930;2023-12-22T10:28:53;8.98;77.56
75357;HTU21D;63946;51.986;5.930;2023-12-22T10:31:40;9.04;77.66
75357;HTU21D;63946;51.986;5.930;2023-12-22T10:34:11;9.08;77.66
75357;HTU21D;63946;51.986;5.930;2023-12-22T10:36:43;9.17;77.67
75357;HTU21D;63946;51.986;5.930;2023-12-22T10:39:13;9.22;77.74
75357;HTU21D;63946;51.986;5.930;2023-12-22T10:41:44;9.29;77.85
75357;HTU21D;63946;51.986;5.930;2023-12-22T10:44:15;9.35;77.95
75357;HTU21D;63946;51.986;5.930;2023-12-22T10:46:48;9.42;78.01
75357;HTU21D;63946;51.986;5.930;2023-12-22T10:49:21;9.51;78.02
75357;HTU21D;63946;51.986;5.930;2023-12-22T10:51:53;9.54;78.07
75357;HTU21D;63946;51.986;5.930;2023-12-22T10:54:33;9.57;78.31
75357;HTU21D;63946;51.986;5.930;2023-12-22T10:57:04;9.52;78.81
75357;HTU21D;63946;51.986;5.930;2023-12-22T10:59:39;9.50;79.18
75357;HTU21D;63946;51.986;5.930;2023-12-22T11:02:15;9.50;79.36
75357;HTU21D;63946;51.986;5.930;2023-12-22T11:04:57;9.52;79.47
75357;HTU21D;63946;51.986;5.930;2023-12-22T11:07:28;9.53;79.54
75357;HTU21D;63946;51.986;5.930;2023-12-22T11:10:19;9.57;79.69
75357;HTU21D;63946;51.986;5.930;2023-12-22T11:12:52;9.57;79.68
75357;HTU21D;63946;51.986;5.930;2023-12-22T11:15:22;9.59;79.71
75357;HTU21D;63946;51.986;5.930;2023-12-22T11:17:55;9.60;79.66
75357;HTU21D;63946;51.986;5.930;2023-12-22T11:20:26;9.60;79.53
75357;HTU21D;63946;51.986;5.930;2023-12-22T11:22:59;9.63;79.46
75357;HTU21D;63946;51.986;5.930;2023-12-22T11:25:30;9.67;79.34
75357;HTU21D;63946;51.986;5.930;2023-12-22T11:28:03;9.67;79.38
75357;HTU21D;63946;51.986;5.930;2023-12-22T11:30:36;9.69;79.49
75357;HTU21D;63946;51.986;5.930;2023-12-22T11:33:06;9.71;79.50
75357;HTU21D;63946;51.986;5.930;2023-12-22T11:35:39;9.75;79.52
75357;HTU21D;63946;51.986;5.930;2023-12-22T11:38:12;9.81;79.49
75357;HTU21D;63946;51.986;5.930;2023-12-22T11:41:08;9.88;79.34
75357;HTU21D;63946;51.986;5.930;2023-12-22T11:43:44;9.93;79.21
75357;HTU21D;63946;51.986;5.930;2023-12-22T11:46:16;9.97;78.95
75357;HTU21D;63946;51.986;5.930;2023-12-22T11:48:52;10.03;78.81
75357;HTU21D;63946;51.986;5.930;2023-12-22T11:51:21;10.08;78.58
75357;HTU21D;63946;51.986;5.930;2023-12-22T11:53:52;10.09;78.55
75357;HTU21D;63946;51.986;5.930;2023-12-22T11:56:21;10.11;78.46
75357;HTU21D;63946;51.986;5.930;2023-12-22T11:58:52;10.08;78.49
75357;HTU21D;63946;51.986;5.930;2023-12-22T12:01:27;10.05;78.56
75357;HTU21D;63946;51.986;5.930;2023-12-22T12:03:58;10.04;78.68
75357;HTU21D;63946;51.986;5.930;2023-12-22T12:14:32;10.05;78.63
75357;HTU21D;63946;51.986;5.930;2023-12-22T12:17:06;10.00;78.56
75357;HTU21D;63946;51.986;5.930;2023-12-22T12:19:38;9.99;78.63
75357;HTU21D;63946;51.986;5.930;2023-12-22T12:22:08;10.01;78.73
75357;HTU21D;63946;51.986;5.930;2023-12-22T12:24:41;10.03;78.79
75357;HTU21D;63946;51.986;5.930;2023-12-22T12:27:11;10.05;78.79
75357;HTU21D;63946;51.986;5.930;2023-12-22T12:29:43;10.09;78.66
75357;HTU21D;63946;51.986;5.930;2023-12-22T12:32:14;10.12;78.56
75357;HTU21D;63946;51.986;5.930;2023-12-22T12:35:00;10.12;78.51
75357;HTU21D;63946;51.986;5.930;2023-12-22T12:37:32;10.11;78.50
75357;HTU21D;63946;51.986;5.930;2023-12-22T12:40:07;10.09;78.46
75357;HTU21D;63946;51.986;5.930;2023-12-22T12:42:38;10.09;78.57
75357;HTU21D;63946;51.986;5.930;2023-12-22T12:45:07;10.09;78.53
75357;HTU21D;63946;51.986;5.930;2023-12-22T12:47:38;10.09;78.54
75357;HTU21D;63946;51.986;5.930;2023-12-22T12:50:07;10.11;78.58
75357;HTU21D;63946;51.986;5.930;2023-12-22T12:52:37;10.13;78.50
75357;HTU21D;63946;51.986;5.930;2023-12-22T12:55:09;10.20;78.38
75357;HTU21D;63946;51.986;5.930;2023-12-22T12:57:42;10.24;78.15
75357;HTU21D;63946;51.986;5.930;2023-12-22T13:00:12;10.27;77.88
75357;HTU21D;63946;51.986;5.930;2023-12-22T13:02:41;10.27;77.79
75357;HTU21D;63946;51.986;5.930;2023-12-22T13:05:20;10.27;77.63
75357;HTU21D;63946;51.986;5.930;2023-12-22T13:07:49;10.27;77.65
75357;HTU21D;63946;51.986;5.930;2023-12-22T13:10:25;10.26;77.76
75357;HTU21D;63946;51.986;5.930;2023-12-22T13:12:57;10.27;77.71
75357;HTU21D;63946;51.986;5.930;2023-12-22T13:15:28;10.29;77.58
75357;HTU21D;63946;51.986;5.930;2023-12-22T13:17:58;10.34;77.37
75357;HTU21D;63946;51.986;5.930;2023-12-22T13:20:37;10.35;77.27
75357;HTU21D;63946;51.986;5.930;2023-12-22T13:23:06;10.39;77.02
75357;HTU21D;63946;51.986;5.930;2023-12-22T13:25:39;10.42;76.82
75357;HTU21D;63946;51.986;5.930;2023-12-22T13:28:08;10.46;76.71
75357;HTU21D;63946;51.986;5.930;2023-12-22T13:30:38;10.45;76.74
75357;HTU21D;63946;51.986;5.930;2023-12-22T13:33:10;10.46;76.68
75357;HTU21D;63946;51.986;5.930;2023-12-22T13:35:39;10.45;76.57
75357;HTU21D;63946;51.986;5.930;2023-12-22T13:38:09;10.46;76.60
75357;HTU21D;63946;51.986;5.930;2023-12-22T13:40:38;10.49;76.52
75357;HTU21D;63946;51.986;5.930;2023-12-22T13:43:07;10.49;76.34
75357;HTU21D;63946;51.986;5.930;2023-12-22T13:45:39;10.48;76.60
75357;HTU21D;63946;51.986;5.930;2023-12-22T13:48:08;10.49;76.71
75357;HTU21D;63946;51.986;5.930;2023-12-22T13:50:40;10.48;76.53
75357;HTU21D;63946;51.986;5.930;2023-12-22T13:53:09;10.46;76.51
75357;HTU21D;63946;51.986;5.930;2023-12-22T13:55:38;10.49;76.30
75357;HTU21D;63946;51.986;5.930;2023-12-22T13:58:09;10.48;76.35
75357;HTU21D;63946;51.986;5.930;2023-12-22T14:00:38;10.42;76.63
75357;HTU21D;63946;51.986;5.930;2023-12-22T14:03:08;10.37;76.67
75357;HTU21D;63946;51.986;5.930;2023-12-22T14:05:37;10.31;77.08
75357;HTU21D;63946;51.986;5.930;2023-12-22T14:08:10;10.30;77.24
75357;HTU21D;63946;51.986;5.930;2023-12-22T14:10:47;10.29;77.27
75357;HTU21D;63946;51.986;5.930;2023-12-22T14:13:16;10.26;77.37
75357;HTU21D;63946;51.986;5.930;2023-12-22T14:15:44;10.25;77.45
75357;HTU21D;63946;51.986;5.930;2023-12-22T14:18:13;10.25;77.50
75357;HTU21D;63946;51.986;5.930;2023-12-22T14:20:42;10.28;77.51
75357;HTU21D;63946;51.986;5.930;2023-12-22T14:23:14;10.28;77.48
75357;HTU21D;63946;51.986;5.930;2023-12-22T14:25:43;10.28;77.36
75357;HTU21D;63946;51.986;5.930;2023-12-22T14:28:10;10.27;77.47
75357;HTU21D;63946;51.986;5.930;2023-12-22T14:30:41;10.25;77.52
75357;HTU21D;63946;51.986;5.930;2023-12-22T14:33:11;10.19;77.59
75357;HTU21D;63946;51.986;5.930;2023-12-22T14:35:40;10.11;77.94
75357;HTU21D;63946;51.986;5.930;2023-12-22T14:38:09;10.06;78.26
75357;HTU21D;63946;51.986;5.930;2023-12-22T14:40:38;10.05;78.45
75357;HTU21D;63946;51.986;5.930;2023-12-22T14:43:06;10.05;78.55
75357;HTU21D;63946;51.986;5.930;2023-12-22T14:45:36;10.06;78.64
75357;HTU21D;63946;51.986;5.930;2023-12-22T14:48:05;10.07;78.74
75357;HTU21D;63946;51.986;5.930;2023-12-22T14:50:34;10.08;78.82
75357;HTU21D;63946;51.986;5.930;2023-12-22T14:53:03;10.08;78.85
75357;HTU21D;63946;51.986;5.930;2023-12-22T14:55:35;10.10;78.88
75357;HTU21D;63946;51.986;5.930;2023-12-22T14:58:03;10.12;78.67
75357;HTU21D;63946;51.986;5.930;2023-12-22T15:00:39;10.13;78.53
75357;HTU21D;63946;51.986;5.930;2023-12-22T15:03:08;10.14;78.30
75357;HTU21D;63946;51.986;5.930;2023-12-22T15:05:37;10.14;78.24
75357;HTU21D;63946;51.986;5.930;2023-12-22T15:08:06;10.15;78.22
75357;HTU21D;63946;51.986;5.930;2023-12-22T15:10:35;10.16;78.38
75357;HTU21D;63946;51.986;5.930;2023-12-22T15:13:04;10.16;78.36
75357;HTU21D;63946;51.986;5.930;2023-12-22T15:15:32;10.16;78.30
75357;HTU21D;63946;51.986;5.930;2023-12-22T15:18:01;10.16;78.26
75357;HTU21D;63946;51.986;5.930;2023-12-22T15:20:31;10.20;78.24
75357;HTU21D;63946;51.986;5.930;2023-12-22T15:23:00;10.20;78.09
75357;HTU21D;63946;51.986;5.930;2023-12-22T15:25:30;10.19;78.16
75357;HTU21D;63946;51.986;5.930;2023-12-22T15:27:58;10.21;78.11
75357;HTU21D;63946;51.986;5.930;2023-12-22T15:30:30;10.20;78.08
75357;HTU21D;63946;51.986;5.930;2023-12-22T15:32:58;10.20;78.13
75357;HTU21D;63946;51.986;5.930;2023-12-22T15:35:27;10.18;78.08
75357;HTU21D;63946;51.986;5.930;2023-12-22T15:37:59;10.16;78.27
75357;HTU21D;63946;51.986;5.930;2023-12-22T15:40:27;10.18;78.24
75357;HTU21D;63946;51.986;5.930;2023-12-22T15:42:56;10.18;78.28
75357;HTU21D;63946;51.986;5.930;2023-12-22T15:45:26;10.18;78.25
75357;HTU21D;63946;51.986;5.930;2023-12-22T15:47:59;10.20;78.14
75357;HTU21D;63946;51.986;5.930;2023-12-22T15:50:28;10.20;78.11
75357;HTU21D;63946;51.986;5.930;2023-12-22T15:53:00;10.22;77.85
75357;HTU21D;63946;51.986;5.930;2023-12-22T15:55:29;10.23;77.77
75357;HTU21D;63946;51.986;5.930;2023-12-22T15:57:58;10.24;77.76
75357;HTU21D;63946;51.986;5.930;2023-12-22T16:00:26;10.24;77.73
75357;HTU21D;63946;51.986;5.930;2023-12-22T16:02:56;10.24;77.65
75357;HTU21D;63946;51.986;5.930;2023-12-22T16:05:36;10.25;77.59
75357;HTU21D;63946;51.986;5.930;2023-12-22T16:08:05;10.27;77.44